createdAt,value
2023-02-20T00:02:14.333Z,98787.34
2023-02-20T00:04:42.451Z,98787.19
2023-02-20T00:07:10.564Z,98785.81
2023-02-20T00:09:40.083Z,98784.72
2023-02-20T00:12:08.324Z,98783.81
2023-02-20T00:14:36.446Z,98784.44
2023-02-20T00:17:04.495Z,98776.09
2023-02-20T00:19:32.582Z,98776.84
2023-02-20T00:22:00.661Z,98778.31
2023-02-20T00:24:28.717Z,98783.00
2023-02-20T00:26:58.163Z,98779.34
2023-02-20T00:29:26.279Z,98773.72
2023-02-20T00:31:55.042Z,98790.13
2023-02-20T00:34:24.010Z,98785.28
2023-02-20T00:36:52.152Z,98770.69
2023-02-20T00:39:20.400Z,98775.13
2023-02-20T00:41:48.889Z,98788.06
2023-02-20T00:44:18.450Z,98786.69
2023-02-20T00:46:48.332Z,98782.75
2023-02-20T00:49:16.479Z,98767.28
2023-02-20T00:51:47.835Z,98767.69
2023-02-20T00:54:16.427Z,98779.66
2023-02-20T00:56:44.582Z,98761.59
2023-02-20T00:59:12.679Z,98762.44
2023-02-20T01:01:43.591Z,98755.72
2023-02-20T01:04:12.083Z,98757.72
2023-02-20T01:06:40.164Z,98758.44
2023-02-20T01:09:08.238Z,98755.78
2023-02-20T01:11:36.338Z,98757.78
2023-02-20T01:14:04.454Z,98759.06
2023-02-20T01:16:32.540Z,98775.00
2023-02-20T01:19:02.189Z,98770.47
2023-02-20T01:21:30.230Z,98772.75
2023-02-20T01:23:58.300Z,98784.22
2023-02-20T01:26:26.452Z,98771.41
2023-02-20T01:28:54.520Z,98770.53
2023-02-20T01:31:23.110Z,98772.28
2023-02-20T01:33:51.355Z,98774.13
2023-02-20T01:36:20.972Z,98777.78
2023-02-20T01:38:51.110Z,98778.06
2023-02-20T01:41:20.212Z,98769.75
2023-02-20T01:43:48.587Z,98774.31
2023-02-20T01:46:49.494Z,98763.78
2023-02-20T01:49:21.759Z,98762.53
2023-02-20T01:51:57.908Z,98762.66
2023-02-20T01:54:29.151Z,98761.22
2023-02-20T01:57:00.651Z,98764.19
2023-02-20T01:59:32.920Z,98752.44
2023-02-20T02:02:01.687Z,98752.03
2023-02-20T02:04:31.002Z,98753.63
2023-02-20T02:07:00.482Z,98746.56
2023-02-20T02:09:38.224Z,98745.19
2023-02-20T02:12:06.590Z,98739.63
2023-02-20T02:14:34.924Z,98733.13
2023-02-20T02:17:20.132Z,98725.97
2023-02-20T02:20:20.842Z,98729.44
2023-02-20T02:23:21.019Z,98728.53
2023-02-20T02:25:56.494Z,98730.13
2023-02-20T02:28:56.396Z,98735.38
2023-02-20T02:32:08.906Z,98737.59
2023-02-20T02:35:10.506Z,98738.97
2023-02-20T02:37:51.515Z,98735.97
2023-02-20T02:40:27.384Z,98734.06
2023-02-20T02:43:05.523Z,98728.38
2023-02-20T02:45:39.589Z,98720.47
2023-02-20T02:48:15.360Z,98716.94
2023-02-20T02:50:48.134Z,98716.88
2023-02-20T02:53:17.744Z,98709.44
2023-02-20T02:55:46.088Z,98723.16
2023-02-20T02:58:15.589Z,98728.25
2023-02-20T03:00:48.945Z,98723.91
2023-02-20T03:03:20.367Z,98722.00
2023-02-20T03:05:55.643Z,98717.28
2023-02-20T03:08:34.446Z,98703.66
2023-02-20T03:11:07.111Z,98695.00
2023-02-20T03:13:58.085Z,98688.03
2023-02-20T03:16:33.108Z,98671.06
2023-02-20T03:19:04.169Z,98663.38
2023-02-20T03:21:34.602Z,98660.03
2023-02-20T03:24:08.380Z,98650.53
2023-02-20T03:26:39.358Z,98643.47
2023-02-20T03:29:13.905Z,98655.75
2023-02-20T03:31:48.190Z,98659.19
2023-02-20T03:34:38.171Z,98671.50
2023-02-20T03:37:26.429Z,98667.53
2023-02-20T03:40:19.580Z,98664.81
2023-02-20T03:43:10.113Z,98671.22
2023-02-20T03:45:43.479Z,98670.25
2023-02-20T03:48:19.600Z,98667.19
2023-02-20T03:51:06.085Z,98666.84
2023-02-20T03:53:43.814Z,98666.38
2023-02-20T03:56:16.647Z,98676.75
2023-02-20T03:58:48.553Z,98675.47
2023-02-20T04:01:19.232Z,98659.38
2023-02-20T04:03:51.011Z,98666.00
2023-02-20T04:06:21.022Z,98664.25
2023-02-20T04:08:56.362Z,98666.38
2023-02-20T04:11:29.441Z,98666.97
2023-02-20T04:13:59.351Z,98657.41
2023-02-20T04:16:27.822Z,98670.00
2023-02-20T04:18:56.561Z,98674.47
2023-02-20T04:21:33.470Z,98655.22
2023-02-20T04:24:07.362Z,98662.84
2023-02-20T04:26:37.592Z,98666.25
2023-02-20T04:29:07.264Z,98667.25
2023-02-20T04:31:35.440Z,98654.75
2023-02-20T04:34:04.132Z,98661.16
2023-02-20T04:36:32.473Z,98667.16
2023-02-20T04:39:01.268Z,98649.00
2023-02-20T04:41:32.612Z,98633.53
2023-02-20T04:44:20.116Z,98618.25
2023-02-20T04:46:50.676Z,98624.19
2023-02-20T04:49:18.865Z,98620.69
2023-02-20T04:51:52.110Z,98624.81
2023-02-20T04:54:20.384Z,98623.41
2023-02-20T04:56:49.033Z,98631.72
2023-02-20T04:59:18.759Z,98628.84
2023-02-20T05:01:52.008Z,98631.66
2023-02-20T05:04:20.396Z,98635.47
2023-02-20T05:06:51.473Z,98621.06
2023-02-20T05:09:20.131Z,98631.22
2023-02-20T05:11:48.596Z,98629.25
2023-02-20T05:14:18.396Z,98617.88
2023-02-20T05:16:46.652Z,98618.59
2023-02-20T05:19:15.727Z,98622.88
2023-02-20T05:22:02.090Z,98617.75
2023-02-20T05:24:30.604Z,98605.25
2023-02-20T05:26:58.947Z,98596.59
2023-02-20T05:29:28.819Z,98594.84
2023-02-20T05:31:57.152Z,98595.41
2023-02-20T05:34:30.396Z,98600.78
2023-02-20T05:36:59.746Z,98601.53
2023-02-20T05:39:27.874Z,98611.69
2023-02-20T05:41:55.951Z,98614.84
2023-02-20T05:44:24.351Z,98613.31
2023-02-20T05:46:54.352Z,98615.72
2023-02-20T05:49:22.556Z,98619.84
2023-02-20T05:51:50.882Z,98618.09
2023-02-20T05:54:19.219Z,98613.94
2023-02-20T05:56:48.350Z,98613.84
2023-02-20T05:59:20.157Z,98617.97
2023-02-20T06:01:52.619Z,98615.75
2023-02-20T06:04:22.332Z,98627.81
2023-02-20T06:06:50.788Z,98620.53
2023-02-20T06:09:19.116Z,98620.78
2023-02-20T06:11:51.258Z,98633.25
2023-02-20T06:14:19.933Z,98620.34
2023-02-20T06:16:48.401Z,98631.13
2023-02-20T06:19:20.180Z,98625.41
2023-02-20T06:21:49.838Z,98621.47
2023-02-20T06:24:18.381Z,98618.91
2023-02-20T06:26:47.198Z,98621.75
2023-02-20T06:29:16.848Z,98622.91
2023-02-20T06:31:45.035Z,98622.59
2023-02-20T06:34:13.372Z,98615.91
2023-02-20T06:36:43.319Z,98624.34
2023-02-20T06:39:14.741Z,98621.84
2023-02-20T06:41:42.842Z,98620.84
2023-02-20T06:44:10.895Z,98630.72
2023-02-20T06:46:39.161Z,98625.31
2023-02-20T06:49:07.302Z,98626.75
2023-02-20T06:51:36.847Z,98626.59
2023-02-20T06:54:05.599Z,98627.50
2023-02-20T06:56:36.332Z,98618.47
2023-02-20T06:59:06.834Z,98608.81
2023-02-20T07:01:40.887Z,98614.91
2023-02-20T07:04:16.428Z,98618.25
2023-02-20T07:06:44.524Z,98597.94
2023-02-20T07:09:12.623Z,98597.03
2023-02-20T07:11:42.153Z,98596.59
2023-02-20T07:14:10.603Z,98593.72
2023-02-20T07:16:38.657Z,98590.94
2023-02-20T07:19:06.733Z,98566.47
2023-02-20T07:21:34.842Z,98569.56
2023-02-20T07:24:03.001Z,98571.47
2023-02-20T07:26:31.756Z,98562.06
2023-02-20T07:29:01.961Z,98564.59
2023-02-20T07:31:30.584Z,98558.59
2023-02-20T07:33:58.904Z,98555.97
2023-02-20T07:36:27.322Z,98554.38
2023-02-20T07:38:56.542Z,98565.28
2023-02-20T07:41:25.310Z,98569.06
2023-02-20T07:43:53.437Z,98556.66
2023-02-20T07:46:23.073Z,98547.88
2023-02-20T07:48:51.136Z,98559.84
2023-02-20T07:51:19.204Z,98566.63
2023-02-20T07:53:50.884Z,98542.63
2023-02-20T07:56:19.654Z,98532.50
2023-02-20T07:58:47.884Z,98527.03
2023-02-20T08:01:16.274Z,98526.78
2023-02-20T08:03:45.877Z,98528.19
2023-02-20T08:06:17.253Z,98514.13
2023-02-20T08:08:49.450Z,98527.22
2023-02-20T08:11:18.276Z,98525.75
2023-02-20T08:13:47.050Z,98526.69
2023-02-20T08:16:15.639Z,98517.53
2023-02-20T08:18:45.421Z,98536.31
2023-02-20T08:21:13.521Z,98521.97
2023-02-20T08:23:41.625Z,98519.44
2023-02-20T08:26:09.987Z,98509.72
2023-02-20T08:28:38.055Z,98512.13
2023-02-20T08:31:06.404Z,98538.31
2023-02-20T08:33:34.448Z,98510.59
2023-02-20T08:36:04.065Z,98500.16
2023-02-20T08:38:34.555Z,98506.38
2023-02-20T08:41:05.130Z,98502.34
2023-02-20T08:43:33.352Z,98484.78
2023-02-20T08:46:01.547Z,98478.13
2023-02-20T08:48:30.275Z,98469.03
2023-02-20T08:50:58.357Z,98483.81
2023-02-20T08:53:28.072Z,98493.75
2023-02-20T08:55:56.150Z,98470.53
2023-02-20T08:58:25.348Z,98471.19
2023-02-20T09:00:54.694Z,98514.56
2023-02-20T09:03:22.998Z,98472.50
2023-02-20T09:05:51.348Z,98472.97
2023-02-20T09:08:19.684Z,98463.78
2023-02-20T09:10:49.413Z,98460.63
2023-02-20T09:13:17.541Z,98468.28
2023-02-20T09:15:45.561Z,98461.81
2023-02-20T09:18:15.544Z,98428.94
2023-02-20T09:20:43.651Z,98433.47
2023-02-20T09:23:12.031Z,98449.31
2023-02-20T09:25:40.105Z,98435.09
2023-02-20T09:28:10.028Z,98431.00
2023-02-20T09:30:38.371Z,98425.59
2023-02-20T09:33:06.639Z,98430.66
2023-02-20T09:35:34.734Z,98423.59
2023-02-20T09:38:02.994Z,98408.75
2023-02-20T09:40:32.883Z,98428.38
2023-02-20T09:43:15.686Z,98391.41
2023-02-20T09:45:49.602Z,98372.00
2023-02-20T09:48:33.861Z,98378.69
2023-02-20T09:51:06.489Z,98398.03
2023-02-20T09:53:41.261Z,98381.13
2023-02-20T09:56:17.012Z,98376.63
2023-02-20T09:58:51.371Z,98383.25
2023-02-20T10:01:23.212Z,98393.56
2023-02-20T10:03:56.740Z,98374.28
2023-02-20T10:06:28.045Z,98372.06
2023-02-20T10:08:57.054Z,98371.22
2023-02-20T10:11:47.266Z,98377.28
2023-02-20T10:14:36.493Z,98362.75
2023-02-20T10:17:14.804Z,98356.91
2023-02-20T10:19:51.905Z,98367.25
2023-02-20T10:22:25.392Z,98350.75
2023-02-20T10:25:08.508Z,98325.75
2023-02-20T10:27:48.949Z,98326.13
2023-02-20T10:30:25.439Z,98327.97
2023-02-20T10:33:00.435Z,98338.22
2023-02-20T10:35:36.749Z,98323.03
2023-02-20T10:38:09.443Z,98309.16
2023-02-20T10:40:42.395Z,98303.69
2023-02-20T10:43:17.772Z,98307.41
2023-02-20T10:45:54.409Z,98293.97
2023-02-20T10:48:26.696Z,98293.19
2023-02-20T10:51:06.265Z,98292.06
2023-02-20T10:53:40.674Z,98284.09
2023-02-20T10:56:14.574Z,98260.66
2023-02-20T10:58:50.967Z,98247.84
2023-02-20T11:01:24.316Z,98257.31
2023-02-20T11:04:01.103Z,98265.72
2023-02-20T11:06:34.132Z,98229.31
2023-02-20T11:09:02.269Z,98225.78
2023-02-20T11:11:34.615Z,98226.19
2023-02-20T11:14:10.386Z,98218.94
2023-02-20T11:16:44.132Z,98206.34
2023-02-20T11:19:18.284Z,98190.72
2023-02-20T11:21:48.709Z,98176.38
2023-02-20T11:24:23.011Z,98179.75
2023-02-20T11:26:52.648Z,98187.69
2023-02-20T11:29:25.135Z,98172.72
2023-02-20T11:31:54.760Z,98131.75
2023-02-20T11:34:25.942Z,98180.50
2023-02-20T11:36:56.190Z,98163.97
2023-02-20T11:39:27.781Z,98159.06
2023-02-20T11:42:14.237Z,98124.03
2023-02-20T11:44:42.584Z,98126.63
2023-02-20T11:47:25.646Z,98145.41
2023-02-20T11:50:19.695Z,98146.59
2023-02-20T11:53:02.451Z,98122.94
2023-02-20T11:55:30.695Z,98114.16
2023-02-20T11:57:59.188Z,98113.50
2023-02-20T12:00:29.200Z,98112.41
2023-02-20T12:03:13.326Z,98106.13
2023-02-20T12:05:44.006Z,98077.19
2023-02-20T12:08:29.858Z,98082.72
2023-02-20T12:11:02.066Z,98054.09
2023-02-20T12:13:33.076Z,98041.75
2023-02-20T12:16:24.160Z,98045.28
2023-02-20T12:18:59.074Z,98065.81
2023-02-20T12:21:38.527Z,98010.09
2023-02-20T12:24:31.503Z,98016.78
2023-02-20T12:27:03.594Z,98018.19
2023-02-20T12:29:42.358Z,98022.59
2023-02-20T12:32:29.967Z,98037.69
2023-02-20T12:35:25.137Z,98015.44
2023-02-20T12:38:05.722Z,98019.53
2023-02-20T12:40:45.689Z,98024.59
2023-02-20T12:43:26.578Z,97999.59
2023-02-20T12:46:06.720Z,98000.09
2023-02-20T12:48:44.477Z,98009.47
2023-02-20T12:51:25.913Z,97992.25
2023-02-20T12:54:05.166Z,98015.25
2023-02-20T12:56:50.673Z,97974.03
2023-02-20T12:59:27.973Z,97973.44
2023-02-20T13:01:58.165Z,97966.25
2023-02-20T13:04:31.741Z,97955.91
2023-02-20T13:07:08.447Z,97927.97
2023-02-20T13:09:39.816Z,97956.56
2023-02-20T13:12:14.473Z,97935.34
2023-02-20T13:14:56.436Z,97938.97
2023-02-20T13:17:34.891Z,97944.88
2023-02-20T13:20:12.739Z,97949.97
2023-02-20T13:22:42.328Z,97934.03
2023-02-20T13:25:41.994Z,97930.94
2023-02-20T13:28:34.795Z,97931.69
2023-02-20T13:31:16.167Z,97900.84
2023-02-20T13:33:46.284Z,97889.09
2023-02-20T13:36:37.774Z,97893.53
2023-02-20T13:39:38.603Z,97890.63
2023-02-20T13:42:27.329Z,97894.50
2023-02-20T13:44:57.209Z,97924.19
2023-02-20T13:47:43.251Z,97874.00
2023-02-20T13:50:31.788Z,97913.22
2023-02-20T13:53:06.763Z,97855.38
2023-02-20T13:55:37.494Z,97924.78
2023-02-20T13:58:12.823Z,97827.22
2023-02-20T14:00:52.664Z,97832.78
2023-02-20T14:03:24.356Z,97824.63
2023-02-20T14:06:11.753Z,97784.34
2023-02-20T14:08:42.089Z,97801.41
2023-02-20T14:11:13.604Z,97779.16
2023-02-20T14:13:45.880Z,97789.09
2023-02-20T14:16:30.427Z,97766.94
2023-02-20T14:19:00.006Z,97744.00
2023-02-20T14:21:30.018Z,97754.78
2023-02-20T14:23:58.810Z,97730.38
2023-02-20T14:26:30.874Z,97728.78
2023-02-20T14:29:01.037Z,97711.47
2023-02-20T14:31:32.014Z,97718.34
2023-02-20T14:34:02.223Z,97704.72
2023-02-20T14:36:59.916Z,97686.91
2023-02-20T14:39:42.815Z,97714.00
2023-02-20T14:42:17.679Z,97689.28
2023-02-20T14:44:50.074Z,97685.00
2023-02-20T14:47:19.564Z,97650.09
2023-02-20T14:49:47.778Z,97655.69
2023-02-20T14:52:20.342Z,97702.75
2023-02-20T14:54:59.139Z,97748.19
2023-02-20T14:57:29.213Z,97689.47
2023-02-20T15:00:25.290Z,97681.41
2023-02-20T15:02:56.901Z,97671.41
2023-02-20T15:05:30.584Z,97668.53
2023-02-20T15:08:03.830Z,97631.53
2023-02-20T15:10:39.350Z,97664.09
2023-02-20T15:13:11.579Z,97648.09
2023-02-20T15:15:42.313Z,97638.47
2023-02-20T15:18:14.302Z,97645.06
2023-02-20T15:20:44.640Z,97673.81
2023-02-20T15:23:25.735Z,97648.53
2023-02-20T15:25:54.213Z,97648.09
2023-02-20T15:28:29.556Z,97658.25
2023-02-20T15:31:07.623Z,97645.81
2023-02-20T15:33:37.788Z,97638.44
2023-02-20T15:36:07.221Z,97638.41
2023-02-20T15:38:36.999Z,97652.59
2023-02-20T15:41:06.338Z,97659.84
2023-02-20T15:43:46.800Z,97639.94
2023-02-20T15:46:17.072Z,97634.72
2023-02-20T15:48:45.729Z,97625.06
2023-02-20T15:51:18.850Z,97602.72
2023-02-20T15:53:47.972Z,97608.34
2023-02-20T15:56:17.081Z,97617.75
2023-02-20T15:58:49.108Z,97621.97
2023-02-20T16:01:17.460Z,97621.69
2023-02-20T16:03:54.674Z,97617.94
2023-02-20T16:06:24.084Z,97601.13
2023-02-20T16:08:53.644Z,97657.06
2023-02-20T16:11:24.638Z,97645.75
2023-02-20T16:13:58.257Z,97659.50
2023-02-20T16:16:34.520Z,97645.31
2023-02-20T16:19:03.383Z,97644.69
2023-02-20T16:21:31.728Z,97640.66
2023-02-20T16:23:59.969Z,97673.47
2023-02-20T16:26:33.110Z,97649.41
2023-02-20T16:29:05.335Z,97705.06
2023-02-20T16:32:13.556Z,97680.47
2023-02-20T17:57:28.395Z,97668.31
2023-02-20T17:59:56.618Z,97661.25
2023-02-20T18:02:24.737Z,97670.47
2023-02-20T18:04:52.838Z,97666.34
2023-02-20T18:07:21.017Z,97667.47
2023-02-20T18:09:49.172Z,97650.13
2023-02-20T18:12:17.376Z,97660.41
2023-02-20T18:14:46.826Z,97678.53
2023-02-20T18:17:15.279Z,97667.53
2023-02-20T18:19:43.554Z,97678.41
2023-02-20T18:22:11.714Z,97703.28
2023-02-20T18:24:40.028Z,97680.56
2023-02-20T18:27:08.234Z,97658.00
2023-02-20T18:29:36.596Z,97686.19
2023-02-20T18:32:06.186Z,97696.16
2023-02-20T18:34:34.354Z,97666.38
2023-02-20T18:37:02.901Z,97641.34
2023-02-20T18:39:30.989Z,97666.22
2023-02-20T18:41:59.124Z,97659.44
2023-02-20T18:44:27.769Z,97642.88
2023-02-20T18:46:57.517Z,97666.72
2023-02-20T18:49:27.029Z,97653.72
2023-02-20T18:51:55.356Z,97651.63
2023-02-20T18:54:30.069Z,97636.94
2023-02-20T18:56:58.318Z,97651.94
2023-02-20T18:59:27.261Z,97618.59
2023-02-20T19:01:56.125Z,97648.66
2023-02-20T19:04:24.888Z,97619.28
2023-02-20T19:06:54.321Z,97687.69
2023-02-20T19:09:24.234Z,97634.28
2023-02-20T19:11:53.692Z,97646.88
2023-02-20T19:14:22.877Z,97672.75
2023-02-20T19:16:51.573Z,97634.06
2023-02-20T19:19:23.902Z,97647.44
2023-02-20T19:21:54.735Z,97635.38
2023-02-20T19:24:23.229Z,97641.38
2023-02-20T19:26:51.384Z,97630.41
2023-02-20T19:29:19.631Z,97627.38
2023-02-20T19:31:47.935Z,97651.66
2023-02-20T19:34:16.480Z,97619.22
2023-02-20T19:36:44.856Z,97655.34
2023-02-20T19:39:17.843Z,97651.41
2023-02-20T19:41:49.951Z,97636.94
2023-02-20T19:44:18.312Z,97626.75
2023-02-20T19:46:46.552Z,97644.69
2023-02-20T19:49:14.898Z,97635.59
2023-02-20T19:51:47.415Z,97656.91
2023-02-20T19:54:17.237Z,97632.81
2023-02-20T19:56:50.256Z,97638.16
2023-02-20T19:59:19.167Z,97626.56
2023-02-20T20:01:52.032Z,97628.06
2023-02-20T20:04:21.157Z,97633.88
2023-02-20T20:06:57.418Z,97611.63
2023-02-20T20:09:36.217Z,97619.06
2023-02-20T20:12:28.001Z,97656.16
2023-02-20T20:14:57.067Z,97618.59
2023-02-20T20:17:25.719Z,97618.38
2023-02-20T20:19:58.908Z,97612.63
2023-02-20T20:22:27.389Z,97631.97
2023-02-20T20:24:56.957Z,97663.22
2023-02-20T20:27:25.148Z,97649.53
2023-02-20T20:29:53.646Z,97617.13
2023-02-20T20:32:22.861Z,97629.03
2023-02-20T20:34:55.236Z,97647.50
2023-02-20T20:37:24.884Z,97645.53
2023-02-20T20:39:53.443Z,97638.16
2023-02-20T20:42:25.363Z,97612.97
2023-02-20T20:44:54.484Z,97618.78
2023-02-20T20:47:22.951Z,97616.31
2023-02-20T20:49:51.102Z,97607.69
2023-02-20T20:52:19.667Z,97590.75
2023-02-20T20:54:53.277Z,97587.59
2023-02-20T20:57:24.609Z,97586.16
2023-02-20T20:59:52.870Z,97580.91
2023-02-20T21:02:22.037Z,97584.59
2023-02-20T21:04:57.987Z,97570.81
2023-02-20T21:07:36.112Z,97600.34
2023-02-20T21:10:04.318Z,97564.75
2023-02-20T21:12:33.819Z,97579.34
2023-02-20T21:15:03.080Z,97579.03
2023-02-20T21:17:31.599Z,97561.06
2023-02-20T21:20:00.129Z,97568.56
2023-02-20T21:22:28.193Z,97569.69
2023-02-20T21:24:56.279Z,97600.19
2023-02-20T21:27:24.360Z,97567.56
2023-02-20T21:29:53.859Z,97576.09
2023-02-20T21:32:22.010Z,97567.31
2023-02-20T21:34:50.097Z,97573.56
2023-02-20T21:37:18.201Z,97559.28
2023-02-20T21:39:46.301Z,97560.00
2023-02-20T21:42:32.681Z,97583.41
2023-02-20T21:45:02.145Z,97578.72
2023-02-20T21:47:30.411Z,97579.91
2023-02-20T21:49:58.758Z,97544.53
2023-02-20T21:52:28.557Z,97553.69
2023-02-20T21:54:56.640Z,97548.81
2023-02-20T21:57:26.628Z,97562.41
2023-02-20T21:59:53.630Z,97563.25
2023-02-20T22:02:22.300Z,97583.66
2023-02-20T22:04:49.378Z,97552.25
2023-02-20T22:07:35.926Z,97534.47
2023-02-20T22:10:21.814Z,97580.16
2023-02-20T22:13:07.288Z,97530.47
2023-02-20T22:15:52.873Z,97559.09
2023-02-20T22:18:39.740Z,97525.47
2023-02-20T22:21:25.662Z,97504.75
2023-02-20T22:24:11.242Z,97540.69
2023-02-20T22:26:56.939Z,97567.78
2023-02-20T22:29:42.331Z,97551.69
2023-02-20T22:32:28.180Z,97515.06
2023-02-20T22:35:15.173Z,97585.94
2023-02-20T22:38:04.151Z,97539.69
2023-02-20T22:40:51.317Z,97547.69
2023-02-20T22:43:37.820Z,97513.56
2023-02-20T22:46:25.511Z,97544.97
2023-02-20T22:49:12.862Z,97493.06
2023-02-20T22:52:05.724Z,97478.78
2023-02-20T22:55:03.956Z,97532.94
2023-02-20T22:57:49.885Z,97532.19
2023-02-20T23:00:35.134Z,97565.50
2023-02-20T23:03:20.947Z,97544.53
2023-02-20T23:06:16.901Z,97514.25
2023-02-20T23:09:05.315Z,97521.28
2023-02-20T23:11:52.254Z,97543.72
2023-02-20T23:14:37.543Z,97586.53
2023-02-20T23:17:35.037Z,97576.00
2023-02-20T23:20:22.336Z,97577.97
2023-02-20T23:23:07.708Z,97537.63
2023-02-20T23:25:54.788Z,97564.16
2023-02-20T23:28:40.014Z,97536.19
2023-02-20T23:31:26.751Z,97542.59
2023-02-20T23:34:12.751Z,97562.31
2023-02-20T23:36:58.256Z,97538.38
2023-02-20T23:39:43.714Z,97584.53
2023-02-20T23:42:30.735Z,97531.03
2023-02-20T23:45:15.998Z,97539.47
2023-02-20T23:48:01.465Z,97530.53
2023-02-20T23:50:46.743Z,97511.34
2023-02-20T23:53:32.337Z,97538.63
2023-02-20T23:56:17.679Z,97556.41
2023-02-20T23:59:04.397Z,97524.88
